createdAt,value
2017-10-24T00:00:48.520Z,11.50
2017-10-24T00:03:19.047Z,11.40
2017-10-24T00:05:49.929Z,11.50
2017-10-24T00:08:21.213Z,11.40
2017-10-24T00:10:51.143Z,11.40
2017-10-24T00:13:21.639Z,11.50
2017-10-24T00:15:51.687Z,11.40
2017-10-24T00:18:21.496Z,11.40
2017-10-24T00:20:51.411Z,11.40
2017-10-24T00:23:22.146Z,11.40
2017-10-24T00:25:52.063Z,11.40
2017-10-24T00:28:22.897Z,11.40
2017-10-24T00:30:53.636Z,11.40
2017-10-24T00:33:24.266Z,11.40
2017-10-24T00:35:55.710Z,11.40
2017-10-24T00:38:25.420Z,11.40
2017-10-24T00:40:55.131Z,11.40
2017-10-24T00:43:24.839Z,11.50
2017-10-24T00:45:54.756Z,11.40
2017-10-24T00:48:24.849Z,11.40
2017-10-24T00:50:54.891Z,11.40
2017-10-24T00:53:25.110Z,11.40
2017-10-24T00:55:54.921Z,11.40
2017-10-24T00:58:24.734Z,11.40
2017-10-24T01:00:54.835Z,11.40
2017-10-24T01:03:24.562Z,11.40
2017-10-24T01:05:55.088Z,11.40
2017-10-24T01:08:27.460Z,11.40
2017-10-24T01:10:57.275Z,11.40
2017-10-24T01:13:28.007Z,11.40
2017-10-24T01:15:57.717Z,11.40
2017-10-24T01:18:27.631Z,11.40
2017-10-24T01:20:57.752Z,11.40
2017-10-24T01:23:28.484Z,11.40
2017-10-24T01:25:58.406Z,11.40
2017-10-24T01:28:29.733Z,11.40
2017-10-24T01:30:59.668Z,11.40
2017-10-24T01:33:29.689Z,11.40
2017-10-24T01:36:00.722Z,11.40
2017-10-24T01:38:31.349Z,11.40
2017-10-24T01:41:01.263Z,11.40
2017-10-24T01:43:31.363Z,11.40
2017-10-24T01:46:02.219Z,11.40
2017-10-24T01:48:32.238Z,11.40
2017-10-24T01:51:02.662Z,11.40
2017-10-24T01:53:32.476Z,11.40
2017-10-24T01:56:03.619Z,11.40
2017-10-24T01:58:33.528Z,11.30
2017-10-24T02:01:03.546Z,11.30
2017-10-24T02:03:33.262Z,11.30
2017-10-24T02:06:03.095Z,11.30
2017-10-24T02:11:07.811Z,11.30
2017-10-24T02:13:37.726Z,11.30
2017-10-24T02:16:07.655Z,11.30
2017-10-24T02:18:37.554Z,11.30
2017-10-24T02:21:07.467Z,11.30
2017-10-24T02:23:38.612Z,11.40
2017-10-24T02:26:08.953Z,11.30
2017-10-24T02:28:39.057Z,11.30
2017-10-24T02:31:09.992Z,11.30
2017-10-24T02:33:40.270Z,11.30
2017-10-24T02:36:10.236Z,11.40
2017-10-24T02:38:40.658Z,11.40
2017-10-24T02:41:11.083Z,11.30
2017-10-24T02:43:41.202Z,11.30
2017-10-24T02:46:12.058Z,11.30
2017-10-24T02:48:42.775Z,11.30
2017-10-24T02:51:13.607Z,11.30
2017-10-24T02:53:44.237Z,11.30
2017-10-24T02:56:14.385Z,11.30
2017-10-24T02:58:44.270Z,11.30
2017-10-24T03:01:14.905Z,11.30
2017-10-24T03:03:44.610Z,11.30
2017-10-24T03:06:14.702Z,11.30
2017-10-24T03:08:44.547Z,11.30
2017-10-24T03:11:14.455Z,11.30
2017-10-24T03:13:44.575Z,11.30
2017-10-24T03:16:14.593Z,11.30
2017-10-24T03:18:44.441Z,11.30
2017-10-24T03:21:14.215Z,11.30
2017-10-24T03:23:44.028Z,11.30
2017-10-24T03:26:14.655Z,11.30
2017-10-24T03:28:44.470Z,11.30
2017-10-24T03:31:14.386Z,11.30
2017-10-24T03:33:44.094Z,11.30
2017-10-24T03:36:14.016Z,11.20
2017-10-24T03:38:43.926Z,11.20
2017-10-24T03:41:14.912Z,11.20
2017-10-24T03:43:44.775Z,11.20
2017-10-24T03:46:14.585Z,11.20
2017-10-24T03:48:44.298Z,11.20
2017-10-24T03:51:14.221Z,11.20
2017-10-24T03:53:45.250Z,11.20
2017-10-24T03:56:15.062Z,11.20
2017-10-24T03:58:44.874Z,11.20
2017-10-24T04:01:14.996Z,11.20
2017-10-24T04:03:46.034Z,11.20
2017-10-24T04:06:16.159Z,11.20
2017-10-24T04:08:45.870Z,11.20
2017-10-24T04:11:15.782Z,11.20
2017-10-24T04:13:45.490Z,11.20
2017-10-24T04:16:15.408Z,11.20
2017-10-24T04:18:46.135Z,11.20
2017-10-24T04:21:16.768Z,11.20
2017-10-24T04:23:46.678Z,11.20
2017-10-24T04:26:16.500Z,11.20
2017-10-24T04:28:46.405Z,11.20
2017-10-24T04:31:16.216Z,11.20
2017-10-24T04:33:46.239Z,11.20
2017-10-24T04:36:16.150Z,11.20
2017-10-24T04:38:46.789Z,11.20
2017-10-24T04:41:22.529Z,11.20
2017-10-24T04:43:52.444Z,11.20
2017-10-24T04:46:22.368Z,11.20
2017-10-24T04:48:53.198Z,11.20
2017-10-24T04:51:23.111Z,11.20
2017-10-24T04:53:53.846Z,11.20
2017-10-24T04:56:24.944Z,11.20
2017-10-24T04:58:55.520Z,11.20
2017-10-24T05:01:25.429Z,11.20
2017-10-24T05:03:55.343Z,11.20
2017-10-24T05:06:25.194Z,11.20
2017-10-24T05:08:55.069Z,11.10
2017-10-24T05:11:24.967Z,11.20
2017-10-24T05:13:54.793Z,11.20
2017-10-24T05:16:24.818Z,11.10
2017-10-24T05:18:54.814Z,11.10
2017-10-24T05:21:24.536Z,11.10
2017-10-24T05:23:54.456Z,11.10
2017-10-24T05:26:24.877Z,11.20
2017-10-24T05:28:54.795Z,11.20
2017-10-24T05:31:24.501Z,11.20
2017-10-24T05:33:55.132Z,11.20
2017-10-24T05:36:25.153Z,11.10
2017-10-24T05:38:55.786Z,11.20
2017-10-24T05:41:25.789Z,11.10
2017-10-24T05:43:56.190Z,11.20
2017-10-24T05:46:26.237Z,11.10
2017-10-24T05:48:56.358Z,11.10
2017-10-24T05:51:26.066Z,11.20
2017-10-24T05:53:56.186Z,11.10
2017-10-24T05:56:26.202Z,11.20
2017-10-24T05:58:56.228Z,11.20
2017-10-24T06:01:26.484Z,11.10
2017-10-24T06:03:57.135Z,11.10
2017-10-24T06:06:27.090Z,11.20
2017-10-24T06:08:57.083Z,11.10
2017-10-24T06:11:26.920Z,11.20
2017-10-24T06:13:57.550Z,11.20
2017-10-24T06:16:27.671Z,11.10
2017-10-24T06:18:57.376Z,11.10
2017-10-24T06:21:27.497Z,11.10
2017-10-24T06:23:58.142Z,11.10
2017-10-24T06:26:28.348Z,11.10
2017-10-24T06:28:58.980Z,11.10
2017-10-24T06:31:29.307Z,11.10
2017-10-24T06:33:59.934Z,11.20
2017-10-24T06:36:30.733Z,11.20
2017-10-24T06:39:00.684Z,11.20
2017-10-24T06:41:30.597Z,11.20
2017-10-24T06:44:00.894Z,11.10
2017-10-24T06:46:30.736Z,11.10
2017-10-24T06:49:01.365Z,11.20
2017-10-24T06:51:31.281Z,11.20
2017-10-24T06:54:02.321Z,11.20
2017-10-24T06:56:33.156Z,11.20
2017-10-24T06:59:03.087Z,11.10
2017-10-24T07:01:33.024Z,11.10
2017-10-24T07:04:02.977Z,11.10
2017-10-24T07:06:32.916Z,11.20
2017-10-24T07:09:02.727Z,11.20
2017-10-24T07:11:33.572Z,11.10
2017-10-24T07:14:03.682Z,11.10
2017-10-24T07:16:33.698Z,11.10
2017-10-24T07:19:04.336Z,11.20
2017-10-24T07:21:34.449Z,11.20
2017-10-24T07:24:04.473Z,11.20
2017-10-24T07:26:34.584Z,11.20
2017-10-24T07:29:05.216Z,11.20
2017-10-24T07:31:35.203Z,11.20
2017-10-24T07:34:04.941Z,11.20
2017-10-24T07:36:34.915Z,11.20
2017-10-24T07:39:05.741Z,11.20
2017-10-24T07:41:35.605Z,11.20
2017-10-24T07:44:06.428Z,11.20
2017-10-24T07:46:36.432Z,11.20
2017-10-24T07:49:06.578Z,11.20
2017-10-24T07:51:36.293Z,11.20
2017-10-24T07:54:06.167Z,11.20
2017-10-24T07:56:36.218Z,11.20
2017-10-24T07:59:06.236Z,11.20
2017-10-24T08:01:36.470Z,11.20
2017-10-24T08:04:07.270Z,11.20
2017-10-24T08:06:37.356Z,11.20
2017-10-24T08:09:07.626Z,11.20
2017-10-24T08:11:37.443Z,11.20
2017-10-24T08:14:08.186Z,11.20
2017-10-24T08:16:38.107Z,11.20
2017-10-24T08:19:08.339Z,11.20
2017-10-24T08:21:39.051Z,11.30
2017-10-24T08:24:08.962Z,11.20
2017-10-24T08:26:39.902Z,11.30
2017-10-24T08:29:11.251Z,11.30
2017-10-24T08:31:42.341Z,11.20
2017-10-24T08:34:12.819Z,11.30
2017-10-24T08:36:44.489Z,11.30
2017-10-24T08:39:14.491Z,11.20
2017-10-24T08:41:45.308Z,11.30
2017-10-24T08:44:15.446Z,11.30
2017-10-24T08:46:46.142Z,11.30
2017-10-24T08:49:16.905Z,11.30
2017-10-24T08:51:47.222Z,11.30
2017-10-24T08:54:17.620Z,11.30
2017-10-24T08:56:47.739Z,11.30
2017-10-24T08:59:17.875Z,11.30
2017-10-24T09:01:48.749Z,11.30
2017-10-24T09:04:18.856Z,11.30
2017-10-24T09:06:49.489Z,11.30
2017-10-24T09:09:26.303Z,11.30
2017-10-24T09:12:02.740Z,11.30
2017-10-24T09:14:33.066Z,11.40
2017-10-24T09:17:03.171Z,11.30
2017-10-24T09:19:43.020Z,11.30
2017-10-24T09:22:21.534Z,11.30
2017-10-24T09:24:52.312Z,11.40
2017-10-24T09:27:22.599Z,11.40
2017-10-24T09:29:53.815Z,11.40
2017-10-24T09:32:23.647Z,11.40
2017-10-24T09:34:53.767Z,11.40
2017-10-24T09:37:24.571Z,11.40
2017-10-24T09:39:55.543Z,11.40
2017-10-24T09:42:25.457Z,11.40
2017-10-24T09:44:56.497Z,11.40
2017-10-24T09:47:27.136Z,11.40
2017-10-24T09:49:59.263Z,11.40
2017-10-24T09:52:29.213Z,11.40
2017-10-24T09:54:59.323Z,11.40
2017-10-24T09:57:29.445Z,11.40
2017-10-24T09:59:59.248Z,11.50
2017-10-24T10:02:30.554Z,11.40
2017-10-24T10:05:00.701Z,11.40
2017-10-24T10:07:30.688Z,11.40
2017-10-24T10:10:01.048Z,11.50
2017-10-24T10:12:37.534Z,11.50
2017-10-24T10:15:07.869Z,11.50
2017-10-24T10:17:37.995Z,11.50
2017-10-24T10:20:08.112Z,11.50
2017-10-24T10:22:38.305Z,11.50
2017-10-24T10:25:08.508Z,11.50
2017-10-24T10:27:38.771Z,11.50
2017-10-24T10:30:09.405Z,11.50
2017-10-24T10:32:40.026Z,11.50
2017-10-24T10:35:11.011Z,11.50
2017-10-24T10:37:41.369Z,11.50
2017-10-24T10:40:11.815Z,11.50
2017-10-24T10:42:42.455Z,11.50
2017-10-24T10:45:13.177Z,11.50
2017-10-24T10:47:43.091Z,11.50
2017-10-24T10:50:14.131Z,11.50
2017-10-24T10:52:45.138Z,11.50
2017-10-24T10:55:15.125Z,11.50
2017-10-24T10:57:45.412Z,11.50
2017-10-24T11:00:16.452Z,11.50
2017-10-24T11:02:47.236Z,11.50
2017-10-24T11:05:17.195Z,11.50
2017-10-24T11:07:47.200Z,11.50
2017-10-24T11:10:17.131Z,11.50
2017-10-24T11:12:47.765Z,11.50
2017-10-24T11:15:17.927Z,11.50
2017-10-24T11:17:48.600Z,11.50
2017-10-24T11:20:19.350Z,11.50
2017-10-24T11:22:49.603Z,11.50
2017-10-24T11:25:19.645Z,11.50
2017-10-24T11:27:49.944Z,11.50
2017-10-24T11:30:19.929Z,11.60
2017-10-24T11:32:50.728Z,11.50
2017-10-24T11:35:20.992Z,11.50
2017-10-24T11:37:50.991Z,11.60
2017-10-24T11:40:21.223Z,11.60
2017-10-24T11:42:52.172Z,11.60
2017-10-24T11:45:22.195Z,11.60
2017-10-24T11:47:52.900Z,11.60
2017-10-24T11:50:23.853Z,11.60
2017-10-24T11:52:55.074Z,11.60
2017-10-24T11:55:25.296Z,11.60
2017-10-24T11:57:55.406Z,11.60
2017-10-24T12:00:25.700Z,11.60
2017-10-24T12:02:55.980Z,11.60
2017-10-24T12:05:26.310Z,11.60
2017-10-24T12:07:56.431Z,11.60
2017-10-24T12:10:27.174Z,11.60
2017-10-24T12:12:57.687Z,11.60
2017-10-24T12:15:27.878Z,11.60
2017-10-24T12:17:57.933Z,11.60
2017-10-24T12:20:29.117Z,11.60
2017-10-24T12:22:59.462Z,11.60
2017-10-24T12:25:30.027Z,11.60
2017-10-24T12:28:01.267Z,11.60
2017-10-24T12:30:31.536Z,11.60
2017-10-24T12:33:01.834Z,11.60
2017-10-24T12:35:31.796Z,11.60
2017-10-24T12:38:01.842Z,11.60
2017-10-24T12:40:31.761Z,11.60
2017-10-24T12:43:01.883Z,11.60
2017-10-24T12:45:32.146Z,11.70
2017-10-24T12:48:02.325Z,11.60
2017-10-24T12:50:33.010Z,11.60
2017-10-24T12:53:03.072Z,11.60
2017-10-24T12:55:33.876Z,11.70
2017-10-24T12:58:04.733Z,11.60
2017-10-24T13:00:35.681Z,11.70
2017-10-24T13:03:05.671Z,11.60
2017-10-24T13:05:35.520Z,11.60
2017-10-24T13:08:06.347Z,11.60
2017-10-24T13:10:36.522Z,11.60
2017-10-24T13:13:06.380Z,11.60
2017-10-24T13:15:37.163Z,11.70
2017-10-24T13:18:07.255Z,11.70
2017-10-24T13:20:37.363Z,11.70
2017-10-24T13:23:08.391Z,11.70
2017-10-24T13:25:39.124Z,11.60
2017-10-24T13:28:09.038Z,11.70
2017-10-24T13:30:40.391Z,11.70
2017-10-24T13:33:12.415Z,11.70
2017-10-24T13:35:43.401Z,11.70
2017-10-24T13:38:14.678Z,11.70
2017-10-24T13:40:44.667Z,11.70
2017-10-24T13:43:15.797Z,11.70
2017-10-24T13:45:46.723Z,11.70
2017-10-24T13:48:17.066Z,11.70
2017-10-24T13:50:47.648Z,11.70
2017-10-24T13:53:18.926Z,11.70
2017-10-24T13:55:49.167Z,11.70
2017-10-24T13:58:20.475Z,11.70
2017-10-24T14:00:51.905Z,11.70
2017-10-24T14:03:22.029Z,11.70
2017-10-24T14:05:56.287Z,11.70
2017-10-24T14:10:34.382Z,11.70
2017-10-24T14:13:04.323Z,11.70
2017-10-24T14:15:35.052Z,11.80
2017-10-24T14:18:05.285Z,11.70
2017-10-24T14:20:35.929Z,11.80
2017-10-24T14:23:06.037Z,11.80
2017-10-24T14:25:35.996Z,11.80
2017-10-24T14:28:06.471Z,11.80
2017-10-24T14:30:36.314Z,11.80
2017-10-24T14:33:06.559Z,11.80
2017-10-24T14:35:37.068Z,11.80
2017-10-24T14:38:07.104Z,11.80
2017-10-24T14:40:37.065Z,11.90
2017-10-24T14:43:07.900Z,11.90
2017-10-24T14:45:38.684Z,11.90
2017-10-24T14:48:08.838Z,11.80
2017-10-24T14:50:38.893Z,11.90
2017-10-24T14:53:08.991Z,11.90
2017-10-24T14:55:39.007Z,11.90
2017-10-24T14:58:09.398Z,11.90
2017-10-24T15:00:39.516Z,11.90
2017-10-24T15:03:09.505Z,11.90
2017-10-24T15:05:40.006Z,11.90
2017-10-24T15:08:09.995Z,11.90
2017-10-24T15:10:40.202Z,11.90
2017-10-24T15:13:10.289Z,11.90
2017-10-24T15:15:40.574Z,11.90
2017-10-24T15:18:11.830Z,12.00
2017-10-24T15:20:41.937Z,12.00
2017-10-24T15:23:12.556Z,11.90
2017-10-24T15:25:42.586Z,11.90
2017-10-24T15:28:14.201Z,12.00
2017-10-24T15:30:44.277Z,11.90
2017-10-24T15:33:14.480Z,11.90
2017-10-24T15:35:44.294Z,12.00
2017-10-24T15:38:15.333Z,12.00
2017-10-24T15:40:45.407Z,12.00
2017-10-24T15:43:15.424Z,12.00
2017-10-24T15:45:45.504Z,12.00
2017-10-24T15:48:15.722Z,12.00
2017-10-24T15:50:45.942Z,12.00
2017-10-24T15:53:16.359Z,12.00
2017-10-24T15:55:46.680Z,12.00
2017-10-24T15:58:17.624Z,12.00
2017-10-24T16:00:49.275Z,12.10
2017-10-24T16:03:19.365Z,12.00
2017-10-24T16:05:49.796Z,12.10
2017-10-24T16:08:20.036Z,12.10
2017-10-24T16:10:51.488Z,12.20
2017-10-24T16:13:22.909Z,12.20
2017-10-24T16:15:53.079Z,12.20
2017-10-24T16:18:23.904Z,12.30
2017-10-24T16:20:54.013Z,12.20
2017-10-24T16:23:25.057Z,12.30
2017-10-24T16:25:56.127Z,12.20
2017-10-24T16:28:26.016Z,12.20
2017-10-24T16:30:57.662Z,12.30
2017-10-24T16:33:29.115Z,12.30
2017-10-24T16:35:59.908Z,12.30
2017-10-24T16:38:29.965Z,12.20
2017-10-24T16:41:01.307Z,12.30
2017-10-24T16:43:32.256Z,12.30
2017-10-24T16:46:03.099Z,12.30
2017-10-24T16:48:33.210Z,12.20
2017-10-24T16:51:04.476Z,12.80
2017-10-24T16:53:34.585Z,12.80
2017-10-24T16:56:04.799Z,13.00
2017-10-24T16:58:35.190Z,13.10
2017-10-24T17:01:05.236Z,13.20
2017-10-24T17:03:36.071Z,13.40
2017-10-24T17:06:07.215Z,13.40
2017-10-24T17:08:37.858Z,13.50
2017-10-24T17:11:07.975Z,13.40
2017-10-24T17:13:38.943Z,13.50
2017-10-24T17:16:10.058Z,13.50
2017-10-24T17:18:40.881Z,13.60
2017-10-24T17:21:12.234Z,13.60
2017-10-24T17:23:43.966Z,13.60
2017-10-24T17:26:14.362Z,13.70
2017-10-24T17:28:46.189Z,13.70
2017-10-24T17:31:16.440Z,13.70
2017-10-24T17:33:46.342Z,13.70
2017-10-24T17:36:16.545Z,13.70
2017-10-24T17:38:46.852Z,13.70
2017-10-24T17:41:18.066Z,13.80
2017-10-24T17:43:48.686Z,13.80
2017-10-24T17:46:19.327Z,13.80
2017-10-24T17:48:49.482Z,13.80
2017-10-24T17:51:19.645Z,13.80
2017-10-24T17:53:50.865Z,13.80
2017-10-24T17:56:21.877Z,13.80
2017-10-24T17:58:52.414Z,13.80
2017-10-24T18:01:23.354Z,13.80
2017-10-24T18:03:53.364Z,13.80
2017-10-24T18:06:24.412Z,13.80
2017-10-24T18:08:55.190Z,13.80
2017-10-24T18:11:25.739Z,13.80
2017-10-24T18:13:55.806Z,13.80
2017-10-24T18:16:26.679Z,13.80
2017-10-24T18:18:57.115Z,13.80
2017-10-24T18:21:27.375Z,13.80
2017-10-24T18:23:58.415Z,13.80
2017-10-24T18:26:29.334Z,13.80
2017-10-24T18:28:59.493Z,13.80
2017-10-24T18:31:30.003Z,13.80
2017-10-24T18:34:01.352Z,13.90
2017-10-24T18:36:31.478Z,13.90
2017-10-24T18:39:02.036Z,13.90
2017-10-24T18:41:31.958Z,13.90
2017-10-24T18:44:02.163Z,13.90
2017-10-24T18:46:32.872Z,13.90
2017-10-24T18:49:03.923Z,13.90
2017-10-24T18:51:34.922Z,13.80
2017-10-24T18:54:05.083Z,13.90
2017-10-24T18:56:35.594Z,13.90
2017-10-24T18:59:06.739Z,13.90
2017-10-24T19:01:37.959Z,13.90
2017-10-24T19:04:08.270Z,13.90
2017-10-24T19:06:38.310Z,13.90
2017-10-24T19:09:11.875Z,13.90
2017-10-24T19:11:42.124Z,13.90
2017-10-24T19:14:12.287Z,13.90
2017-10-24T19:16:42.958Z,13.90
2017-10-24T19:19:13.033Z,13.90
2017-10-24T19:21:43.446Z,13.90
2017-10-24T19:24:14.405Z,13.90
2017-10-24T19:26:44.699Z,13.90
2017-10-24T19:29:14.781Z,13.90
2017-10-24T19:31:47.035Z,13.90
2017-10-24T19:34:17.218Z,13.90
2017-10-24T19:36:47.995Z,13.90
2017-10-24T19:39:18.088Z,13.90
2017-10-24T19:41:48.130Z,13.90
2017-10-24T19:44:18.685Z,13.90
2017-10-24T19:46:49.013Z,14.00
2017-10-24T19:49:20.538Z,13.90
2017-10-24T19:51:51.984Z,13.90
2017-10-24T19:54:23.195Z,13.90
2017-10-24T19:56:53.920Z,13.90
2017-10-24T19:59:24.957Z,14.00
2017-10-24T20:01:55.189Z,14.00
2017-10-24T20:04:26.234Z,14.00
2017-10-24T20:06:57.081Z,14.00
2017-10-24T20:09:27.361Z,14.00
2017-10-24T20:11:57.458Z,14.00
2017-10-24T20:14:27.520Z,14.00
2017-10-24T20:16:57.506Z,14.00
2017-10-24T20:19:27.492Z,14.00
2017-10-24T20:21:58.705Z,14.00
2017-10-24T20:24:29.072Z,14.00
2017-10-24T20:27:00.237Z,14.00
2017-10-24T20:29:30.526Z,14.00
2017-10-24T20:32:00.647Z,14.00
2017-10-24T20:34:30.829Z,14.00
2017-10-24T20:37:02.077Z,14.00
2017-10-24T20:39:32.415Z,14.00
2017-10-24T20:42:03.438Z,14.00
2017-10-24T20:44:33.766Z,14.00
2017-10-24T20:47:04.752Z,14.00
2017-10-24T20:49:34.872Z,14.10
2017-10-24T20:52:07.698Z,14.10
2017-10-24T20:54:38.107Z,14.10
2017-10-24T20:57:08.211Z,14.10
2017-10-24T20:59:38.665Z,14.10
2017-10-24T21:02:09.590Z,14.10
2017-10-24T21:04:41.545Z,14.10
2017-10-24T21:07:11.595Z,14.10
2017-10-24T21:09:42.117Z,14.10
2017-10-24T21:12:12.053Z,14.10
2017-10-24T21:14:42.306Z,14.10
2017-10-24T21:17:12.423Z,14.10
2017-10-24T21:19:42.688Z,14.10
2017-10-24T21:22:12.818Z,14.10
2017-10-24T21:24:43.011Z,14.10
2017-10-24T21:27:13.054Z,14.10
2017-10-24T21:29:44.931Z,14.10
2017-10-24T21:32:16.685Z,14.10
2017-10-24T21:34:47.052Z,14.10
2017-10-24T21:37:17.518Z,14.10
2017-10-24T21:39:48.769Z,14.10
2017-10-24T21:42:19.808Z,14.10
2017-10-24T21:44:49.934Z,14.10
2017-10-24T21:47:20.688Z,14.10
2017-10-24T21:49:50.674Z,14.10
2017-10-24T21:52:21.517Z,14.10
2017-10-24T21:54:51.981Z,14.10
2017-10-24T21:57:22.426Z,14.10
2017-10-24T21:59:52.485Z,14.10
2017-10-24T22:02:24.142Z,14.10
2017-10-24T22:04:54.467Z,14.10
2017-10-24T22:07:26.079Z,14.10
2017-10-24T22:09:56.206Z,14.10
2017-10-24T22:12:26.422Z,14.10
2017-10-24T22:14:56.235Z,14.10
2017-10-24T22:17:26.494Z,14.10
2017-10-24T22:19:56.305Z,14.10
2017-10-24T22:22:26.689Z,14.10
2017-10-24T22:24:57.776Z,14.10
2017-10-24T22:27:29.348Z,14.10
2017-10-24T22:30:00.879Z,14.10
2017-10-24T22:32:31.697Z,14.10
2017-10-24T22:35:01.602Z,14.10
2017-10-24T22:37:31.648Z,14.10
2017-10-24T22:40:01.362Z,14.10
2017-10-24T22:42:33.116Z,14.10
2017-10-24T22:45:03.127Z,14.10
2017-10-24T22:47:33.322Z,14.10
2017-10-24T22:50:03.476Z,14.10
2017-10-24T22:52:33.804Z,14.10
2017-10-24T22:55:04.644Z,14.10
2017-10-24T22:57:34.749Z,14.10
2017-10-24T23:00:04.873Z,14.20
2017-10-24T23:02:34.898Z,14.10
2017-10-24T23:05:05.115Z,14.10
2017-10-24T23:07:35.751Z,14.10
2017-10-24T23:10:06.440Z,14.10
2017-10-24T23:12:36.287Z,14.10
2017-10-24T23:15:06.818Z,14.10
2017-10-24T23:17:37.448Z,14.10
2017-10-24T23:20:08.127Z,14.10
2017-10-24T23:22:38.022Z,14.10
2017-10-24T23:25:07.907Z,14.10
2017-10-24T23:27:39.930Z,14.10
2017-10-24T23:30:10.905Z,14.10
2017-10-24T23:32:41.055Z,14.10
2017-10-24T23:35:10.944Z,14.10
2017-10-24T23:37:40.958Z,14.10
2017-10-24T23:40:11.184Z,14.20
2017-10-24T23:42:41.201Z,14.10
2017-10-24T23:45:11.488Z,14.10
2017-10-24T23:47:41.655Z,14.10
2017-10-24T23:50:11.862Z,14.10
2017-10-24T23:52:41.689Z,14.10
2017-10-24T23:55:11.491Z,14.20
2017-10-24T23:57:42.115Z,14.10
